Time;durP1;ratioP1;P1;durP2;ratioP2;P2;SDS_P1;SDS_P2;PMS_P1;PMS_P2;Temp;Humidity;BMP_temperature;BMP_pressure;BME280_temperature;BME280_humidity;BME280_pressure;Samples;Min_cycle;Max_cycle;Signal;HPM_P1;HPM_P2
2023/10/10 00:00:38;;;;;;;6.83;3.50;;;;;;;;;;6203308;22;20365;-94
2023/10/10 00:03:08;;;;;;;6.53;3.07;;;;;;;;;;6238973;22;20365;-93
2023/10/10 00:05:36;;;;;;;6.60;3.13;;;;;;;;;;6232666;22;20384;-94
2023/10/10 00:08:05;;;;;;;7.53;3.47;;;;;;;;;;6236844;22;20374;-94
2023/10/10 00:10:31;;;;;;;5.77;3.23;;;;;;;;;;6232988;22;20378;-93
2023/10/10 00:13:00;;;;;;;8.03;3.73;;;;;;;;;;6238614;22;20362;-93
2023/10/10 00:15:33;;;;;;;7.90;3.40;;;;;;;;;;6237235;22;20393;-94
2023/10/10 00:18:03;;;;;;;6.87;4.23;;;;;;;;;;6234405;22;20408;-93
2023/10/10 00:20:39;;;;;;;6.60;3.97;;;;;;;;;;6234536;22;20381;-95
2023/10/10 00:23:05;;;;;;;8.83;4.20;;;;;;;;;;6236399;22;20448;-94
2023/10/10 00:25:31;;;;;;;9.57;3.70;;;;;;;;;;6234996;22;20385;-91
2023/10/10 00:28:17;;;;;;;10.23;3.90;;;;;;;;;;6236738;22;20373;-93
2023/10/10 00:30:43;;;;;;;5.90;2.87;;;;;;;;;;6236900;22;21003;-94
2023/10/10 00:33:10;;;;;;;9.67;4.00;;;;;;;;;;6237553;22;20476;-90
2023/10/10 00:35:38;;;;;;;6.30;3.20;;;;;;;;;;6232369;22;20373;-89
2023/10/10 00:38:05;;;;;;;12.80;3.80;;;;;;;;;;6262006;22;20422;-90
2023/10/10 00:40:33;;;;;;;7.47;3.17;;;;;;;;;;6231644;22;20364;-88
2023/10/10 00:42:59;;;;;;;12.60;3.50;;;;;;;;;;6235407;22;20365;-90
2023/10/10 00:45:31;;;;;;;10.33;3.70;;;;;;;;;;6246401;22;20381;-90
2023/10/10 00:48:00;;;;;;;5.63;3.10;;;;;;;;;;6234340;22;20362;-87
2023/10/10 00:50:27;;;;;;;9.57;3.27;;;;;;;;;;6233048;22;20379;-88
2023/10/10 00:52:56;;;;;;;5.33;3.33;;;;;;;;;;6231711;22;20448;-91
2023/10/10 00:55:22;;;;;;;9.40;3.60;;;;;;;;;;6231424;22;20399;-90
2023/10/10 00:57:53;;;;;;;9.37;3.40;;;;;;;;;;6230658;22;20376;-89
2023/10/10 01:00:20;;;;;;;9.20;3.33;;;;;;;;;;6236392;22;20372;-90
2023/10/10 01:02:46;;;;;;;6.27;3.67;;;;;;;;;;6232946;22;20375;-90
2023/10/10 01:05:12;;;;;;;9.50;3.70;;;;;;;;;;6237378;22;20376;-89
2023/10/10 01:07:38;;;;;;;6.53;3.00;;;;;;;;;;6230799;22;20499;-90
2023/10/10 01:10:43;;;;;;;7.03;3.53;;;;;;;;;;6259859;22;20365;-91
2023/10/10 01:12:58;;;;;;;7.57;3.50;;;;;;;;;;6258220;22;20386;-90
2023/10/10 01:15:25;;;;;;;9.90;3.50;;;;;;;;;;6239769;22;20369;-89
2023/10/10 01:17:51;;;;;;;4.93;3.10;;;;;;;;;;6230553;22;20374;-90
2023/10/10 01:20:34;;;;;;;6.13;2.60;;;;;;;;;;6233193;22;20377;-90
2023/10/10 01:23:00;;;;;;;6.40;3.70;;;;;;;;;;6235158;22;20422;-88
2023/10/10 01:28:02;;;;;;;8.90;4.07;;;;;;;;;;6258483;22;20353;-90
2023/10/10 01:30:56;;;;;;;10.47;3.50;;;;;;;;;;6235364;22;21084;-89
2023/10/10 01:33:25;;;;;;;9.00;4.90;;;;;;;;;;6236833;22;20374;-90
2023/10/10 01:35:55;;;;;;;9.20;2.67;;;;;;;;;;6236452;22;20378;-90
2023/10/10 01:38:27;;;;;;;11.70;3.47;;;;;;;;;;6256761;22;20372;-89
2023/10/10 01:40:58;;;;;;;5.87;3.30;;;;;;;;;;6287014;22;20425;-90
2023/10/10 01:43:24;;;;;;;16.00;5.13;;;;;;;;;;6230333;22;20383;-89
2023/10/10 01:46:08;;;;;;;10.50;4.17;;;;;;;;;;6239821;22;21066;-90
2023/10/10 01:48:43;;;;;;;13.83;3.90;;;;;;;;;;6232918;22;20368;-90
2023/10/10 01:51:08;;;;;;;9.03;3.43;;;;;;;;;;6262402;22;20436;-90
2023/10/10 01:53:40;;;;;;;7.70;3.37;;;;;;;;;;6256440;22;20362;-89
2023/10/10 01:56:07;;;;;;;6.60;2.93;;;;;;;;;;6233462;22;20393;-89
2023/10/10 01:58:36;;;;;;;14.40;4.10;;;;;;;;;;6230968;22;20456;-89
2023/10/10 02:01:11;;;;;;;8.33;2.93;;;;;;;;;;6235804;22;20380;-89
2023/10/10 02:03:39;;;;;;;11.53;4.10;;;;;;;;;;6255923;22;20721;-89
2023/10/10 02:06:09;;;;;;;13.67;4.13;;;;;;;;;;6232050;22;20566;-89
2023/10/10 02:08:38;;;;;;;6.23;3.00;;;;;;;;;;6231945;22;20373;-89
2023/10/10 02:11:06;;;;;;;10.47;4.10;;;;;;;;;;6233625;22;20450;-89
2023/10/10 02:13:33;;;;;;;6.10;3.40;;;;;;;;;;6256979;22;20448;-89
2023/10/10 02:16:01;;;;;;;8.53;4.67;;;;;;;;;;6233410;22;20385;-89
2023/10/10 02:21:43;;;;;;;7.80;4.00;;;;;;;;;;6216964;22;20889;-90
2023/10/10 02:25:31;;;;;;;7.13;2.80;;;;;;;;;;6238030;22;20388;-89
2023/10/10 02:27:04;;;;;;;10.03;3.40;;;;;;;;;;6265780;22;20448;-90
2023/10/10 02:32:35;;;;;;;9.13;3.70;;;;;;;;;;6255455;22;20382;-90
2023/10/10 02:34:56;;;;;;;9.67;3.57;;;;;;;;;;6259565;22;20377;-89
2023/10/10 02:37:41;;;;;;;3.90;2.60;;;;;;;;;;6230209;22;20381;-90
2023/10/10 02:40:14;;;;;;;6.47;3.33;;;;;;;;;;6236875;22;20365;-89
2023/10/10 02:42:49;;;;;;;10.70;3.37;;;;;;;;;;6230301;22;20369;-89
2023/10/10 02:45:15;;;;;;;7.80;4.00;;;;;;;;;;6239362;22;20392;-89
2023/10/10 02:47:46;;;;;;;6.63;4.03;;;;;;;;;;6228982;22;20439;-89
2023/10/10 02:50:38;;;;;;;6.23;3.67;;;;;;;;;;6238533;22;20441;-89
2023/10/10 02:53:00;;;;;;;4.40;2.60;;;;;;;;;;6281005;22;20834;-89
2023/10/10 02:55:33;;;;;;;8.80;3.30;;;;;;;;;;6229487;22;20793;-90
2023/10/10 02:57:59;;;;;;;6.20;3.27;;;;;;;;;;6230518;22;20845;-89
2023/10/10 03:02:54;;;;;;;10.47;3.37;;;;;;;;;;6253294;22;20373;-89
2023/10/10 03:05:38;;;;;;;8.00;3.87;;;;;;;;;;6230147;22;20385;-89
2023/10/10 03:08:12;;;;;;;5.03;2.83;;;;;;;;;;6258165;22;20370;-89
2023/10/10 03:10:39;;;;;;;9.70;3.70;;;;;;;;;;6231561;22;20382;-90
2023/10/10 03:13:12;;;;;;;8.43;3.13;;;;;;;;;;6254877;22;20362;-89
2023/10/10 03:15:40;;;;;;;15.63;8.03;;;;;;;;;;6231516;22;20372;-90
2023/10/10 03:25:51;;;;;;;17.40;8.50;;;;;;;;;;6263934;22;20436;-89
2023/10/10 05:25:13;;;;;;;9.20;5.13;;;;;;;;;;6199036;23;20359;-90
2023/10/10 05:27:42;;;;;;;13.43;5.97;;;;;;;;;;6204744;22;20420;-89
2023/10/10 05:30:23;;;;;;;15.43;5.07;;;;;;;;;;6234134;22;20432;-90
2023/10/10 05:33:00;;;;;;;12.37;4.70;;;;;;;;;;6237021;22;20415;-90
2023/10/10 05:35:27;;;;;;;16.30;5.90;;;;;;;;;;6238549;22;20376;-90
2023/10/10 05:38:02;;;;;;;10.10;5.40;;;;;;;;;;6262287;22;20372;-90
2023/10/10 05:40:34;;;;;;;9.93;3.63;;;;;;;;;;6257561;22;20389;-90
2023/10/10 05:43:00;;;;;;;10.73;4.17;;;;;;;;;;6236358;22;20373;-89
2023/10/10 05:45:27;;;;;;;13.30;4.53;;;;;;;;;;6230902;22;20406;-90
2023/10/10 05:47:53;;;;;;;8.73;4.00;;;;;;;;;;6235413;22;20868;-90
2023/10/10 05:50:22;;;;;;;17.20;5.50;;;;;;;;;;6232973;22;20961;-89
2023/10/10 05:52:48;;;;;;;14.10;5.70;;;;;;;;;;6233503;22;20449;-89
2023/10/10 05:55:15;;;;;;;10.50;4.77;;;;;;;;;;6258804;22;20381;-90
2023/10/10 05:57:41;;;;;;;18.30;4.90;;;;;;;;;;6232967;22;20456;-90
2023/10/10 06:00:10;;;;;;;7.67;4.67;;;;;;;;;;6233920;22;20375;-90
2023/10/10 06:02:37;;;;;;;12.73;4.97;;;;;;;;;;6239076;22;20373;-89
2023/10/10 06:05:04;;;;;;;15.00;6.07;;;;;;;;;;6233015;22;20384;-89
2023/10/10 06:07:31;;;;;;;13.10;5.40;;;;;;;;;;6240877;22;20421;-90
2023/10/10 06:10:05;;;;;;;8.03;4.90;;;;;;;;;;6256573;22;20365;-90
2023/10/10 06:12:33;;;;;;;9.70;4.40;;;;;;;;;;6233339;22;20392;-90
2023/10/10 06:15:05;;;;;;;14.43;6.20;;;;;;;;;;6232197;22;20380;-91
2023/10/10 06:17:33;;;;;;;14.13;6.37;;;;;;;;;;6235895;22;20362;-90
2023/10/10 06:20:00;;;;;;;14.00;6.13;;;;;;;;;;6230802;22;20377;-90
2023/10/10 06:22:29;;;;;;;16.33;7.10;;;;;;;;;;6234276;22;20487;-90
2023/10/10 06:24:57;;;;;;;13.63;5.60;;;;;;;;;;6231393;22;20430;-90
2023/10/10 06:27:28;;;;;;;14.77;6.00;;;;;;;;;;6233009;22;20489;-90
2023/10/10 06:29:54;;;;;;;9.20;4.60;;;;;;;;;;6231215;22;20401;-90
2023/10/10 06:32:20;;;;;;;17.33;6.10;;;;;;;;;;6261829;22;20365;-89
2023/10/10 06:35:03;;;;;;;13.03;5.00;;;;;;;;;;6230776;22;20377;-90
2023/10/10 06:37:29;;;;;;;10.13;6.03;;;;;;;;;;6243085;22;20381;-89
2023/10/10 06:39:55;;;;;;;12.60;5.53;;;;;;;;;;6229360;22;20710;-88
2023/10/10 06:42:27;;;;;;;14.47;6.53;;;;;;;;;;6260033;22;20366;-88
2023/10/10 06:44:54;;;;;;;12.80;5.10;;;;;;;;;;6230721;22;20856;-88
2023/10/10 06:47:21;;;;;;;16.70;5.03;;;;;;;;;;6233530;22;20492;-88
2023/10/10 06:49:56;;;;;;;12.00;4.93;;;;;;;;;;6234626;22;20458;-89
2023/10/10 06:52:23;;;;;;;10.33;4.80;;;;;;;;;;6237506;22;20377;-88
2023/10/10 06:54:55;;;;;;;13.33;4.87;;;;;;;;;;6257713;22;20373;-89
2023/10/10 06:57:35;;;;;;;12.23;4.27;;;;;;;;;;6261477;22;21149;-89
2023/10/10 07:00:01;;;;;;;8.90;4.63;;;;;;;;;;6259383;22;20675;-89
2023/10/10 07:02:27;;;;;;;5.20;3.77;;;;;;;;;;6233782;22;20383;-90
2023/10/10 07:04:53;;;;;;;10.27;4.20;;;;;;;;;;6229049;22;20916;-89
2023/10/10 07:07:26;;;;;;;8.30;3.70;;;;;;;;;;6235932;22;20413;-88
2023/10/10 07:09:57;;;;;;;9.20;5.77;;;;;;;;;;6259950;22;20427;-88
2023/10/10 07:12:24;;;;;;;10.63;3.80;;;;;;;;;;6258323;22;20365;-89
2023/10/10 07:14:54;;;;;;;16.57;4.70;;;;;;;;;;6233401;22;20373;-88
2023/10/10 07:17:27;;;;;;;11.60;4.27;;;;;;;;;;6230582;22;20382;-88
2023/10/10 07:22:28;;;;;;;6.73;3.70;;;;;;;;;;6257487;22;20350;-90
2023/10/10 07:24:55;;;;;;;13.10;5.20;;;;;;;;;;6231707;22;20532;-89
2023/10/10 07:27:30;;;;;;;17.93;4.40;;;;;;;;;;6230047;22;20467;-90
2023/10/10 07:32:28;;;;;;;11.00;5.00;;;;;;;;;;6254108;22;20380;-89
2023/10/10 07:34:54;;;;;;;15.07;4.47;;;;;;;;;;6235512;22;20662;-89
2023/10/10 07:37:23;;;;;;;11.77;5.43;;;;;;;;;;6229051;22;20385;-89
2023/10/10 07:39:55;;;;;;;7.80;4.57;;;;;;;;;;6238670;22;20381;-87
2023/10/10 07:42:29;;;;;;;10.27;5.30;;;;;;;;;;6255605;22;20354;-88
2023/10/10 07:44:55;;;;;;;9.90;5.07;;;;;;;;;;6234969;22;20362;-88
2023/10/10 07:47:25;;;;;;;14.20;6.77;;;;;;;;;;6254313;22;20433;-89
2023/10/10 07:49:52;;;;;;;9.07;4.93;;;;;;;;;;6235343;22;20373;-89
2023/10/10 07:52:20;;;;;;;12.67;4.63;;;;;;;;;;6254052;22;20893;-90
2023/10/10 07:54:46;;;;;;;8.20;4.70;;;;;;;;;;6228859;22;20470;-89
2023/10/10 07:57:22;;;;;;;9.67;5.07;;;;;;;;;;6228034;22;20385;-88
2023/10/10 07:59:47;;;;;;;7.20;3.40;;;;;;;;;;6236766;22;20435;-89
2023/10/10 08:02:24;;;;;;;13.27;4.10;;;;;;;;;;6233652;22;20903;-89
2023/10/10 08:05:01;;;;;;;7.43;3.47;;;;;;;;;;6236842;22;20437;-89
2023/10/10 08:07:52;;;;;;;8.60;3.47;;;;;;;;;;6232796;22;20924;-89
2023/10/10 08:10:39;;;;;;;12.33;5.00;;;;;;;;;;6256003;22;20400;-88
2023/10/10 08:13:10;;;;;;;8.40;4.00;;;;;;;;;;6260496;22;20431;-89
2023/10/10 08:21:13;;;;;;;9.80;4.07;;;;;;;;;;6257723;22;20369;-90
2023/10/10 08:23:43;;;;;;;10.90;4.20;;;;;;;;;;6229982;22;20384;-91
2023/10/10 08:26:18;;;;;;;8.80;4.30;;;;;;;;;;6228669;22;20420;-90
2023/10/10 08:28:50;;;;;;;11.50;5.40;;;;;;;;;;6232406;22;21347;-88
2023/10/10 08:31:16;;;;;;;11.03;5.33;;;;;;;;;;6231646;22;20513;-90
2023/10/10 08:33:48;;;;;;;9.40;4.40;;;;;;;;;;6231389;22;20377;-90
2023/10/10 08:36:23;;;;;;;8.97;4.67;;;;;;;;;;6231509;22;20858;-90
2023/10/10 08:39:05;;;;;;;12.83;4.50;;;;;;;;;;6240593;22;20381;-89
2023/10/10 08:41:32;;;;;;;10.13;4.40;;;;;;;;;;6256437;22;20448;-89
2023/10/10 08:43:58;;;;;;;7.63;4.17;;;;;;;;;;6232955;22;20377;-89
2023/10/10 08:46:30;;;;;;;8.43;4.10;;;;;;;;;;6230310;22;20404;-89
2023/10/10 08:48:58;;;;;;;12.80;4.37;;;;;;;;;;6232790;22;20385;-90
2023/10/10 08:51:24;;;;;;;16.47;5.33;;;;;;;;;;6230769;22;20387;-89
2023/10/10 08:53:53;;;;;;;15.73;4.93;;;;;;;;;;6225749;22;20392;-90
2023/10/10 08:56:20;;;;;;;15.20;5.30;;;;;;;;;;6228655;22;20451;-90
2023/10/10 08:58:48;;;;;;;6.53;3.50;;;;;;;;;;6228517;22;20932;-90
2023/10/10 09:01:14;;;;;;;14.23;5.20;;;;;;;;;;6253418;22;20376;-90
2023/10/10 09:03:45;;;;;;;25.07;6.37;;;;;;;;;;6228858;22;20440;-92
2023/10/10 09:06:15;;;;;;;13.60;5.03;;;;;;;;;;6231345;22;20399;-91
2023/10/10 09:08:43;;;;;;;19.73;5.60;;;;;;;;;;6232980;22;20417;-91
2023/10/10 09:11:11;;;;;;;12.33;5.40;;;;;;;;;;6264108;22;20844;-91
2023/10/10 09:13:51;;;;;;;11.63;5.30;;;;;;;;;;6230275;22;20381;-91
2023/10/10 09:16:19;;;;;;;13.40;5.30;;;;;;;;;;6234191;22;21105;-91
2023/10/10 09:18:46;;;;;;;11.50;5.87;;;;;;;;;;6227904;22;20384;-90
2023/10/10 09:21:18;;;;;;;13.70;7.17;;;;;;;;;;6231638;22;20404;-88
2023/10/10 09:23:52;;;;;;;10.10;5.60;;;;;;;;;;6229915;22;20372;-88
2023/10/10 09:26:29;;;;;;;16.50;6.07;;;;;;;;;;6235056;22;20419;-88
2023/10/10 09:29:15;;;;;;;13.03;5.40;;;;;;;;;;6231804;22;20416;-89
2023/10/10 09:31:45;;;;;;;7.40;4.30;;;;;;;;;;6234761;22;20753;-89
2023/10/10 09:34:12;;;;;;;9.90;5.67;;;;;;;;;;6227951;22;20378;-89
2023/10/10 09:36:50;;;;;;;12.73;4.87;;;;;;;;;;6229558;22;20390;-86
2023/10/10 09:39:36;;;;;;;14.13;5.87;;;;;;;;;;6233166;22;20459;-88
2023/10/10 09:42:08;;;;;;;13.33;4.90;;;;;;;;;;6230098;23;20397;-91
2023/10/10 09:44:53;;;;;;;9.60;4.70;;;;;;;;;;6224344;23;20393;-91
2023/10/10 09:47:52;;;;;;;8.90;4.53;;;;;;;;;;6226056;23;20406;-90
2023/10/10 09:52:53;;;;;;;11.63;4.70;;;;;;;;;;6225934;23;20358;-89
2023/10/10 09:58:15;;;;;;;10.10;5.77;;;;;;;;;;6224556;23;20365;-89
2023/10/10 10:09:01;;;;;;;9.17;4.73;;;;;;;;;;6188621;23;20461;-90
2023/10/10 10:11:29;;;;;;;9.00;5.07;;;;;;;;;;6166031;23;20383;-87
2023/10/10 10:14:17;;;;;;;15.30;5.83;;;;;;;;;;6105359;23;20870;-89
2023/10/10 10:17:17;;;;;;;13.53;7.40;;;;;;;;;;6135010;23;20400;-90
2023/10/10 10:19:45;;;;;;;14.43;5.33;;;;;;;;;;6108658;23;20429;-90
2023/10/10 10:22:17;;;;;;;14.20;6.10;;;;;;;;;;6105231;23;20389;-90
2023/10/10 10:24:46;;;;;;;10.23;5.60;;;;;;;;;;6107980;23;20402;-90
2023/10/10 10:27:25;;;;;;;14.63;5.87;;;;;;;;;;6127460;23;20436;-90
2023/10/10 10:30:07;;;;;;;12.30;5.63;;;;;;;;;;6110782;23;20488;-92
2023/10/10 10:32:35;;;;;;;7.10;5.50;;;;;;;;;;6107177;23;20480;-91
2023/10/10 10:35:01;;;;;;;8.07;4.50;;;;;;;;;;6108151;23;20822;-92
2023/10/10 10:37:29;;;;;;;13.33;6.70;;;;;;;;;;6105128;23;20421;-91
2023/10/10 10:42:51;;;;;;;12.40;4.77;;;;;;;;;;6198334;23;20352;-91
2023/10/10 10:45:24;;;;;;;11.90;5.43;;;;;;;;;;6212756;22;20467;-91
2023/10/10 10:48:34;;;;;;;13.07;5.17;;;;;;;;;;6234742;22;20440;-92
2023/10/10 10:51:06;;;;;;;18.17;5.30;;;;;;;;;;6286618;22;20481;-92
2023/10/10 10:53:38;;;;;;;9.40;5.20;;;;;;;;;;6235845;22;20374;-92
2023/10/10 11:01:21;;;;;;;15.50;4.90;;;;;;;;;;6251909;23;20370;-93
2023/10/10 11:03:51;;;;;;;10.43;4.70;;;;;;;;;;6229022;23;20427;-92
2023/10/10 11:06:20;;;;;;;11.40;5.00;;;;;;;;;;6228611;23;20418;-92
2023/10/10 11:11:36;;;;;;;9.40;5.10;;;;;;;;;;6229170;23;20382;-93
2023/10/10 11:14:29;;;;;;;10.17;4.80;;;;;;;;;;6233206;23;20449;-92
2023/10/10 11:16:58;;;;;;;15.13;6.70;;;;;;;;;;6228703;23;20383;-92
2023/10/10 11:22:12;;;;;;;13.40;5.07;;;;;;;;;;6255610;22;20389;-90
2023/10/10 11:24:38;;;;;;;12.50;5.70;;;;;;;;;;6233228;22;20382;-88
2023/10/10 11:29:44;;;;;;;9.10;5.00;;;;;;;;;;6265155;22;20226;-88
2023/10/10 11:32:24;;;;;;;9.00;5.00;;;;;;;;;;6254717;22;20366;-88
2023/10/10 11:34:50;;;;;;;11.33;5.80;;;;;;;;;;6234888;22;20729;-88
2023/10/10 11:37:23;;;;;;;9.50;4.93;;;;;;;;;;6227267;22;21071;-88
2023/10/10 11:39:57;;;;;;;14.77;4.97;;;;;;;;;;6253751;22;20392;-89
2023/10/10 11:42:24;;;;;;;10.90;4.87;;;;;;;;;;6229947;22;20717;-89
2023/10/10 11:44:54;;;;;;;8.60;5.23;;;;;;;;;;6254310;22;20392;-89
2023/10/10 11:47:26;;;;;;;10.00;5.40;;;;;;;;;;6229204;22;20428;-88
2023/10/10 11:50:00;;;;;;;8.97;5.43;;;;;;;;;;6239690;22;20370;-88
2023/10/10 11:52:27;;;;;;;15.33;5.17;;;;;;;;;;6231009;22;20374;-89
2023/10/10 11:54:58;;;;;;;10.10;5.33;;;;;;;;;;6259523;22;20380;-88
2023/10/10 11:57:28;;;;;;;9.87;4.40;;;;;;;;;;6230400;22;20453;-88
2023/10/10 11:59:54;;;;;;;27.50;5.33;;;;;;;;;;6231707;22;20377;-88
2023/10/10 12:02:29;;;;;;;9.27;5.03;;;;;;;;;;6254718;22;20408;-88
2023/10/10 12:05:15;;;;;;;11.07;4.43;;;;;;;;;;6264351;22;20369;-91
2023/10/10 12:07:41;;;;;;;10.17;4.50;;;;;;;;;;6258072;22;20416;-92
2023/10/10 12:10:09;;;;;;;17.10;8.30;;;;;;;;;;6233746;22;20380;-92
2023/10/10 12:12:37;;;;;;;17.43;8.40;;;;;;;;;;6235183;22;20693;-92
2023/10/10 12:15:03;;;;;;;18.00;7.00;;;;;;;;;;6231994;22;20377;-92
2023/10/10 12:17:29;;;;;;;9.83;5.20;;;;;;;;;;6233565;22;20480;-92
2023/10/10 12:20:03;;;;;;;16.23;5.13;;;;;;;;;;6233558;22;20378;-92
2023/10/10 12:22:30;;;;;;;12.70;4.90;;;;;;;;;;6290796;22;20365;-92
2023/10/10 12:24:57;;;;;;;10.77;4.70;;;;;;;;;;6232750;22;20385;-93
2023/10/10 12:27:29;;;;;;;11.20;4.13;;;;;;;;;;6237140;22;20429;-93
2023/10/10 12:29:58;;;;;;;12.53;6.60;;;;;;;;;;6237318;22;21154;-92
2023/10/10 12:32:26;;;;;;;12.13;4.80;;;;;;;;;;6236717;22;20400;-94
2023/10/10 12:34:52;;;;;;;10.30;4.47;;;;;;;;;;6239379;22;20377;-93
2023/10/10 12:37:23;;;;;;;11.57;4.80;;;;;;;;;;6239063;22;20463;-94
2023/10/10 12:39:51;;;;;;;12.90;5.63;;;;;;;;;;6237022;22;20425;-93
2023/10/10 12:42:17;;;;;;;7.07;4.53;;;;;;;;;;6236520;23;20379;-91
2023/10/10 12:44:47;;;;;;;13.33;4.90;;;;;;;;;;6229914;23;20425;-93
2023/10/10 12:47:17;;;;;;;12.93;5.10;;;;;;;;;;6231243;23;20418;-94
2023/10/10 12:49:44;;;;;;;8.47;5.20;;;;;;;;;;6228378;23;20820;-93
2023/10/10 12:52:16;;;;;;;12.07;5.00;;;;;;;;;;6231319;23;20378;-92
2023/10/10 12:54:46;;;;;;;16.50;5.50;;;;;;;;;;6228519;23;20862;-93
2023/10/10 12:57:14;;;;;;;14.30;5.10;;;;;;;;;;6235491;23;20401;-91
2023/10/10 12:59:46;;;;;;;9.50;4.73;;;;;;;;;;6227485;23;20888;-91
2023/10/10 13:02:15;;;;;;;8.03;4.60;;;;;;;;;;6231212;23;20380;-92
2023/10/10 13:04:45;;;;;;;9.50;4.97;;;;;;;;;;6204955;23;20369;-92
2023/10/10 13:07:15;;;;;;;14.80;5.00;;;;;;;;;;6231122;23;20402;-92
2023/10/10 13:09:43;;;;;;;11.40;4.90;;;;;;;;;;6229553;23;20406;-92
2023/10/10 13:12:18;;;;;;;11.20;4.83;;;;;;;;;;6235493;22;20401;-93
2023/10/10 13:14:50;;;;;;;13.30;5.23;;;;;;;;;;6237011;22;20444;-92
2023/10/10 13:19:54;;;;;;;15.40;5.70;;;;;;;;;;6263740;22;20459;-92
2023/10/10 13:22:20;;;;;;;9.07;4.23;;;;;;;;;;6238575;22;20384;-94
2023/10/10 13:24:48;;;;;;;13.20;5.23;;;;;;;;;;6233465;22;20872;-93
2023/10/10 13:27:15;;;;;;;13.87;5.93;;;;;;;;;;6232200;22;20425;-93
2023/10/10 13:29:41;;;;;;;9.03;4.50;;;;;;;;;;6234142;22;20401;-92
2023/10/10 13:32:07;;;;;;;13.63;4.83;;;;;;;;;;6240974;22;20392;-93
2023/10/10 13:34:37;;;;;;;7.77;4.70;;;;;;;;;;6234316;22;20387;-92
2023/10/10 13:37:07;;;;;;;11.93;4.47;;;;;;;;;;6234405;22;20927;-93
2023/10/10 13:39:33;;;;;;;8.70;5.43;;;;;;;;;;6235565;22;20479;-93
2023/10/10 13:42:00;;;;;;;9.80;5.10;;;;;;;;;;6236663;22;20385;-93
2023/10/10 13:44:26;;;;;;;10.90;6.37;;;;;;;;;;6233706;22;20389;-93
2023/10/10 13:46:52;;;;;;;11.80;4.47;;;;;;;;;;6239200;22;20448;-93
2023/10/10 13:49:18;;;;;;;13.23;4.63;;;;;;;;;;6234689;22;20385;-94
2023/10/10 13:51:44;;;;;;;12.27;5.63;;;;;;;;;;6236365;22;20373;-93
2023/10/10 13:54:13;;;;;;;12.53;4.37;;;;;;;;;;6235750;22;20369;-92
2023/10/10 13:56:43;;;;;;;27.03;7.10;;;;;;;;;;6237253;22;20965;-92
2023/10/10 13:59:11;;;;;;;18.67;5.10;;;;;;;;;;6262348;22;20342;-93
2023/10/10 14:01:39;;;;;;;9.10;4.70;;;;;;;;;;6243990;22;20425;-92
2023/10/10 14:04:26;;;;;;;13.03;4.70;;;;;;;;;;6240909;22;20841;-92
2023/10/10 14:07:07;;;;;;;6.30;3.50;;;;;;;;;;6271293;22;20421;-93
2023/10/10 14:09:34;;;;;;;11.00;4.80;;;;;;;;;;6244504;22;20398;-92
2023/10/10 14:12:01;;;;;;;12.87;5.03;;;;;;;;;;6240842;22;20468;-92
2023/10/10 14:14:28;;;;;;;6.57;4.40;;;;;;;;;;6240980;22;20837;-92
2023/10/10 14:16:54;;;;;;;11.97;4.90;;;;;;;;;;6239923;22;20389;-92
2023/10/10 14:19:23;;;;;;;17.00;6.13;;;;;;;;;;6243151;22;20384;-92
2023/10/10 14:21:52;;;;;;;10.80;4.00;;;;;;;;;;6240724;22;20389;-92
2023/10/10 14:24:20;;;;;;;15.93;4.23;;;;;;;;;;6268891;22;20441;-92
2023/10/10 14:26:48;;;;;;;11.23;5.03;;;;;;;;;;6235665;23;20429;-92
2023/10/10 14:29:14;;;;;;;8.93;4.50;;;;;;;;;;6231780;23;20905;-92
2023/10/10 14:31:46;;;;;;;10.47;4.97;;;;;;;;;;6235142;22;20386;-92
2023/10/10 14:34:26;;;;;;;9.53;6.20;;;;;;;;;;6223266;23;20383;-92
2023/10/10 14:36:53;;;;;;;9.37;4.47;;;;;;;;;;6203235;23;20458;-92
2023/10/10 14:39:28;;;;;;;12.57;5.73;;;;;;;;;;6200950;23;20399;-93
2023/10/10 14:41:58;;;;;;;9.30;5.33;;;;;;;;;;6204351;23;20387;-93
2023/10/10 14:44:26;;;;;;;8.70;4.30;;;;;;;;;;6200512;23;20375;-93
2023/10/10 14:46:54;;;;;;;11.37;4.40;;;;;;;;;;6200445;23;20425;-92
2023/10/10 14:49:28;;;;;;;14.93;5.03;;;;;;;;;;6201930;23;20377;-92
2023/10/10 14:51:55;;;;;;;13.03;5.60;;;;;;;;;;6205914;23;20382;-93
2023/10/10 14:54:21;;;;;;;15.03;6.87;;;;;;;;;;6202118;23;20403;-93
2023/10/10 14:56:50;;;;;;;17.27;6.73;;;;;;;;;;6197629;23;20387;-91
2023/10/10 14:59:20;;;;;;;14.97;5.30;;;;;;;;;;6200971;23;20391;-92
2023/10/10 15:01:49;;;;;;;13.17;6.73;;;;;;;;;;6197810;23;20379;-91
2023/10/10 15:04:17;;;;;;;9.33;4.80;;;;;;;;;;6204131;23;20673;-92
2023/10/10 15:06:44;;;;;;;8.70;4.50;;;;;;;;;;6234399;23;20422;-92
2023/10/10 15:09:13;;;;;;;12.63;5.60;;;;;;;;;;6254575;23;20375;-92
2023/10/10 15:11:41;;;;;;;11.70;5.00;;;;;;;;;;6232641;23;20442;-91
2023/10/10 15:14:09;;;;;;;11.23;5.87;;;;;;;;;;6225812;23;20436;-92
2023/10/10 15:16:35;;;;;;;12.20;4.80;;;;;;;;;;6234708;22;20377;-93
2023/10/10 15:19:02;;;;;;;11.83;5.30;;;;;;;;;;6234787;22;20381;-93
2023/10/10 15:21:32;;;;;;;7.27;4.90;;;;;;;;;;6241337;22;20377;-94
2023/10/10 15:24:11;;;;;;;11.80;4.83;;;;;;;;;;6239750;22;20377;-92
2023/10/10 15:26:45;;;;;;;10.20;4.60;;;;;;;;;;6270057;22;20420;-93
2023/10/10 15:29:12;;;;;;;10.03;5.10;;;;;;;;;;6236731;22;20393;-94
2023/10/10 15:31:40;;;;;;;16.27;5.07;;;;;;;;;;6242660;22;20390;-93
2023/10/10 15:34:10;;;;;;;10.90;5.10;;;;;;;;;;6241241;22;20434;-92
2023/10/10 15:36:52;;;;;;;11.87;7.10;;;;;;;;;;6272269;22;20349;-92
2023/10/10 15:39:23;;;;;;;15.93;6.50;;;;;;;;;;6236348;22;20386;-92
2023/10/10 15:41:50;;;;;;;11.70;6.00;;;;;;;;;;6241906;22;20753;-93
2023/10/10 15:44:16;;;;;;;6.93;5.30;;;;;;;;;;6237434;22;20852;-91
2023/10/10 15:46:43;;;;;;;16.10;5.30;;;;;;;;;;6237215;22;20483;-93
2023/10/10 15:49:12;;;;;;;11.30;6.30;;;;;;;;;;6235787;22;20372;-92
2023/10/10 15:51:38;;;;;;;8.50;4.50;;;;;;;;;;6264895;22;20370;-91
2023/10/10 15:54:08;;;;;;;13.20;5.43;;;;;;;;;;6235313;22;20369;-93
2023/10/10 15:56:34;;;;;;;9.13;5.43;;;;;;;;;;6236230;22;20377;-91
2023/10/10 15:59:01;;;;;;;13.30;5.40;;;;;;;;;;6233647;22;20380;-91
2023/10/10 16:01:33;;;;;;;10.20;4.93;;;;;;;;;;6237565;22;20386;-90
2023/10/10 16:04:06;;;;;;;8.90;4.47;;;;;;;;;;6236962;22;20366;-92
2023/10/10 16:06:35;;;;;;;14.07;5.97;;;;;;;;;;6258993;22;20508;-90
2023/10/10 16:09:13;;;;;;;12.00;5.00;;;;;;;;;;6241743;22;20385;-91
2023/10/10 16:11:40;;;;;;;9.20;5.17;;;;;;;;;;6236289;22;20369;-93
2023/10/10 16:14:14;;;;;;;8.30;5.47;;;;;;;;;;6236764;22;20391;-92
2023/10/10 16:16:45;;;;;;;12.07;4.97;;;;;;;;;;6236495;22;20701;-90
2023/10/10 16:19:20;;;;;;;8.30;4.57;;;;;;;;;;6234330;22;20462;-91
2023/10/10 16:21:46;;;;;;;20.40;5.97;;;;;;;;;;6233671;22;20373;-91
2023/10/10 16:24:15;;;;;;;20.70;11.73;;;;;;;;;;6231486;22;20392;-90
2023/10/10 16:26:44;;;;;;;22.27;10.70;;;;;;;;;;6232505;22;20436;-90
2023/10/10 16:29:19;;;;;;;10.43;4.77;;;;;;;;;;6232227;22;20407;-90
2023/10/10 16:31:50;;;;;;;10.10;5.50;;;;;;;;;;6232517;22;20424;-90
2023/10/10 16:34:18;;;;;;;11.43;5.23;;;;;;;;;;6207966;22;20376;-90
2023/10/10 16:37:09;;;;;;;10.57;5.57;;;;;;;;;;6231827;22;20377;-90
2023/10/10 16:39:45;;;;;;;11.10;5.60;;;;;;;;;;6283743;22;20365;-89
2023/10/10 16:42:12;;;;;;;14.10;5.37;;;;;;;;;;6235330;22;20393;-89
2023/10/10 16:44:38;;;;;;;13.33;5.10;;;;;;;;;;6264891;22;20427;-90
2023/10/10 16:47:04;;;;;;;8.10;5.27;;;;;;;;;;6257199;22;20427;-89
2023/10/10 16:49:30;;;;;;;15.73;5.20;;;;;;;;;;6233830;22;20426;-88
2023/10/10 16:51:56;;;;;;;8.10;4.63;;;;;;;;;;6233680;22;20369;-90
2023/10/10 16:54:22;;;;;;;11.80;5.90;;;;;;;;;;6235050;22;20365;-90
2023/10/10 16:56:57;;;;;;;10.60;5.10;;;;;;;;;;6231439;22;20416;-90
2023/10/10 16:59:23;;;;;;;10.87;4.70;;;;;;;;;;6240020;22;20372;-90
2023/10/10 17:01:49;;;;;;;10.30;4.80;;;;;;;;;;6229722;22;20388;-89
2023/10/10 17:04:18;;;;;;;9.67;5.07;;;;;;;;;;6233714;22;20435;-91
2023/10/10 17:06:48;;;;;;;15.50;5.23;;;;;;;;;;6230847;22;20416;-90
2023/10/10 17:09:14;;;;;;;11.00;5.63;;;;;;;;;;6240712;22;20392;-90
2023/10/10 17:11:40;;;;;;;12.07;5.13;;;;;;;;;;6232250;22;20472;-90
2023/10/10 17:14:06;;;;;;;14.90;5.00;;;;;;;;;;6235034;22;20396;-90
2023/10/10 17:16:33;;;;;;;9.73;4.87;;;;;;;;;;6228890;22;20388;-90
2023/10/10 17:18:59;;;;;;;10.20;5.20;;;;;;;;;;6233126;22;20418;-90
2023/10/10 17:21:27;;;;;;;10.80;5.00;;;;;;;;;;6257077;22;20377;-90
2023/10/10 17:23:55;;;;;;;13.27;5.43;;;;;;;;;;6236211;22;20406;-90
2023/10/10 17:26:21;;;;;;;11.63;4.63;;;;;;;;;;6232622;22;20416;-91
2023/10/10 17:28:48;;;;;;;13.20;5.37;;;;;;;;;;6233800;22;20479;-91
2023/10/10 17:31:23;;;;;;;13.57;6.23;;;;;;;;;;6233042;22;20384;-89
2023/10/10 17:33:52;;;;;;;7.03;4.50;;;;;;;;;;6235483;22;20852;-89
2023/10/10 17:36:18;;;;;;;12.10;5.03;;;;;;;;;;6234303;22;20433;-90
2023/10/10 17:38:44;;;;;;;8.93;5.10;;;;;;;;;;6240676;22;20384;-89
2023/10/10 17:41:12;;;;;;;10.00;5.60;;;;;;;;;;6234400;22;20396;-90
2023/10/10 17:43:38;;;;;;;12.27;5.73;;;;;;;;;;6235561;22;20475;-90
2023/10/10 17:46:04;;;;;;;11.43;5.37;;;;;;;;;;6232832;22;20445;-91
2023/10/10 17:48:30;;;;;;;13.37;5.90;;;;;;;;;;6235322;22;20350;-90
2023/10/10 17:51:01;;;;;;;11.17;6.20;;;;;;;;;;6231880;22;20399;-90
2023/10/10 17:53:27;;;;;;;16.53;6.60;;;;;;;;;;6235340;22;20368;-89